sensor_id;sensor_type;location;lat;lon;timestamp;temperature;humidity
18753;DHT22;9505;50.882;5.350;2023-07-13T00:00:41;15.20;99.90
18753;DHT22;9505;50.882;5.350;2023-07-13T00:03:07;15.20;99.90
18753;DHT22;9505;50.882;5.350;2023-07-13T00:05:33;15.20;99.90
18753;DHT22;9505;50.882;5.350;2023-07-13T00:07:58;15.10;99.90
18753;DHT22;9505;50.882;5.350;2023-07-13T00:10:24;15.10;99.90
18753;DHT22;9505;50.882;5.350;2023-07-13T00:12:50;15.10;99.90
18753;DHT22;9505;50.882;5.350;2023-07-13T00:15:23;15.10;99.90
18753;DHT22;9505;50.882;5.350;2023-07-13T00:17:53;15.10;99.90
18753;DHT22;9505;50.882;5.350;2023-07-13T00:20:23;15.00;99.90
18753;DHT22;9505;50.882;5.350;2023-07-13T00:22:51;15.00;99.90
18753;DHT22;9505;50.882;5.350;2023-07-13T00:25:19;15.00;99.90
18753;DHT22;9505;50.882;5.350;2023-07-13T00:27:47;15.00;99.90
18753;DHT22;9505;50.882;5.350;2023-07-13T00:30:14;15.00;99.90
18753;DHT22;9505;50.882;5.350;2023-07-13T00:32:40;15.10;99.90
18753;DHT22;9505;50.882;5.350;2023-07-13T00:35:06;15.10;99.90
18753;DHT22;9505;50.882;5.350;2023-07-13T00:37:32;15.10;99.90
18753;DHT22;9505;50.882;5.350;2023-07-13T00:39:58;15.00;99.90
18753;DHT22;9505;50.882;5.350;2023-07-13T00:42:24;14.90;99.90
18753;DHT22;9505;50.882;5.350;2023-07-13T00:45:03;15.00;99.90
18753;DHT22;9505;50.882;5.350;2023-07-13T00:47:29;15.00;99.90
18753;DHT22;9505;50.882;5.350;2023-07-13T00:49:55;15.00;99.90
18753;DHT22;9505;50.882;5.350;2023-07-13T00:52:20;15.00;99.90
18753;DHT22;9505;50.882;5.350;2023-07-13T00:54:46;15.00;99.90
18753;DHT22;9505;50.882;5.350;2023-07-13T00:57:18;15.00;99.90
18753;DHT22;9505;50.882;5.350;2023-07-13T00:59:49;15.00;99.90
18753;DHT22;9505;50.882;5.350;2023-07-13T01:02:16;14.90;99.90
18753;DHT22;9505;50.882;5.350;2023-07-13T01:04:42;14.90;99.90
18753;DHT22;9505;50.882;5.350;2023-07-13T01:07:10;14.80;99.90
18753;DHT22;9505;50.882;5.350;2023-07-13T01:09:37;14.80;99.90
18753;DHT22;9505;50.882;5.350;2023-07-13T01:12:03;14.80;99.90
18753;DHT22;9505;50.882;5.350;2023-07-13T01:14:29;14.80;99.90
18753;DHT22;9505;50.882;5.350;2023-07-13T01:16:55;14.70;99.90
18753;DHT22;9505;50.882;5.350;2023-07-13T01:22:19;14.70;99.90
18753;DHT22;9505;50.882;5.350;2023-07-13T01:24:48;14.70;99.90
18753;DHT22;9505;50.882;5.350;2023-07-13T01:27:17;14.60;99.90
18753;DHT22;9505;50.882;5.350;2023-07-13T01:29:44;14.60;99.90
18753;DHT22;9505;50.882;5.350;2023-07-13T01:32:15;14.50;99.90
18753;DHT22;9505;50.882;5.350;2023-07-13T01:34:41;14.40;99.90
18753;DHT22;9505;50.882;5.350;2023-07-13T01:37:08;14.40;99.90
18753;DHT22;9505;50.882;5.350;2023-07-13T01:39:34;14.50;99.90
18753;DHT22;9505;50.882;5.350;2023-07-13T01:42:00;14.40;99.90
18753;DHT22;9505;50.882;5.350;2023-07-13T01:44:26;14.40;99.90
18753;DHT22;9505;50.882;5.350;2023-07-13T01:46:51;14.40;99.90
18753;DHT22;9505;50.882;5.350;2023-07-13T01:49:17;14.40;99.90
18753;DHT22;9505;50.882;5.350;2023-07-13T01:51:43;14.40;99.90
18753;DHT22;9505;50.882;5.350;2023-07-13T01:54:08;14.40;99.90
18753;DHT22;9505;50.882;5.350;2023-07-13T01:56:34;14.40;99.90
18753;DHT22;9505;50.882;5.350;2023-07-13T01:58:59;14.40;99.90
18753;DHT22;9505;50.882;5.350;2023-07-13T02:01:25;14.40;99.90
18753;DHT22;9505;50.882;5.350;2023-07-13T02:03:51;14.40;99.90
18753;DHT22;9505;50.882;5.350;2023-07-13T02:06:17;14.30;99.90
18753;DHT22;9505;50.882;5.350;2023-07-13T02:08:42;14.40;99.90
18753;DHT22;9505;50.882;5.350;2023-07-13T02:11:08;14.40;99.90
18753;DHT22;9505;50.882;5.350;2023-07-13T02:13:34;14.40;99.90
18753;DHT22;9505;50.882;5.350;2023-07-13T02:16:00;14.30;99.90
18753;DHT22;9505;50.882;5.350;2023-07-13T02:18:26;14.30;99.90
18753;DHT22;9505;50.882;5.350;2023-07-13T02:20:51;14.30;99.90
18753;DHT22;9505;50.882;5.350;2023-07-13T02:23:17;14.30;99.90
18753;DHT22;9505;50.882;5.350;2023-07-13T02:25:42;14.20;99.90
18753;DHT22;9505;50.882;5.350;2023-07-13T02:28:08;14.20;99.90
18753;DHT22;9505;50.882;5.350;2023-07-13T02:30:34;14.10;99.90
18753;DHT22;9505;50.882;5.350;2023-07-13T02:33:00;14.10;99.90
18753;DHT22;9505;50.882;5.350;2023-07-13T02:35:26;14.00;99.90
18753;DHT22;9505;50.882;5.350;2023-07-13T02:37:51;14.00;99.90
18753;DHT22;9505;50.882;5.350;2023-07-13T02:40:17;14.00;99.90
18753;DHT22;9505;50.882;5.350;2023-07-13T02:42:43;14.00;99.90
18753;DHT22;9505;50.882;5.350;2023-07-13T02:45:09;13.90;99.90
18753;DHT22;9505;50.882;5.350;2023-07-13T02:47:36;13.90;99.90
18753;DHT22;9505;50.882;5.350;2023-07-13T02:50:02;13.90;99.90
18753;DHT22;9505;50.882;5.350;2023-07-13T02:52:28;13.90;99.90
18753;DHT22;9505;50.882;5.350;2023-07-13T02:54:53;13.90;99.90
18753;DHT22;9505;50.882;5.350;2023-07-13T02:57:19;13.80;99.90
18753;DHT22;9505;50.882;5.350;2023-07-13T02:59:45;13.80;99.90
18753;DHT22;9505;50.882;5.350;2023-07-13T03:02:10;13.80;99.90
18753;DHT22;9505;50.882;5.350;2023-07-13T03:04:37;13.80;99.90
18753;DHT22;9505;50.882;5.350;2023-07-13T03:07:03;13.80;99.90
18753;DHT22;9505;50.882;5.350;2023-07-13T03:09:29;13.90;99.90
18753;DHT22;9505;50.882;5.350;2023-07-13T03:11:55;13.90;99.90
18753;DHT22;9505;50.882;5.350;2023-07-13T03:14:22;13.90;99.90
18753;DHT22;9505;50.882;5.350;2023-07-13T03:16:48;13.90;99.90
18753;DHT22;9505;50.882;5.350;2023-07-13T03:19:13;14.00;99.90
18753;DHT22;9505;50.882;5.350;2023-07-13T03:21:39;14.00;99.90
18753;DHT22;9505;50.882;5.350;2023-07-13T03:24:05;14.00;99.90
18753;DHT22;9505;50.882;5.350;2023-07-13T03:26:31;14.00;99.90
18753;DHT22;9505;50.882;5.350;2023-07-13T03:28:57;14.00;99.90
18753;DHT22;9505;50.882;5.350;2023-07-13T03:31:26;14.00;99.90
18753;DHT22;9505;50.882;5.350;2023-07-13T03:33:52;13.90;99.90
18753;DHT22;9505;50.882;5.350;2023-07-13T03:36:20;13.90;99.90
18753;DHT22;9505;50.882;5.350;2023-07-13T03:38:51;13.90;99.90
18753;DHT22;9505;50.882;5.350;2023-07-13T03:41:17;13.90;99.90
18753;DHT22;9505;50.882;5.350;2023-07-13T03:43:43;13.90;99.90
18753;DHT22;9505;50.882;5.350;2023-07-13T03:46:09;14.00;99.90
18753;DHT22;9505;50.882;5.350;2023-07-13T03:48:35;14.10;99.90
18753;DHT22;9505;50.882;5.350;2023-07-13T03:51:00;14.10;99.90
18753;DHT22;9505;50.882;5.350;2023-07-13T03:53:26;14.20;99.90
18753;DHT22;9505;50.882;5.350;2023-07-13T03:55:52;14.30;99.90
18753;DHT22;9505;50.882;5.350;2023-07-13T03:58:36;14.30;99.90
18753;DHT22;9505;50.882;5.350;2023-07-13T04:01:04;14.50;99.90
18753;DHT22;9505;50.882;5.350;2023-07-13T04:03:31;14.50;99.90
18753;DHT22;9505;50.882;5.350;2023-07-13T04:05:59;14.60;99.90
18753;DHT22;9505;50.882;5.350;2023-07-13T04:08:30;14.70;99.90
18753;DHT22;9505;50.882;5.350;2023-07-13T04:10:57;14.70;99.90
18753;DHT22;9505;50.882;5.350;2023-07-13T04:13:23;14.80;99.90
18753;DHT22;9505;50.882;5.350;2023-07-13T04:15:49;14.90;99.90
18753;DHT22;9505;50.882;5.350;2023-07-13T04:18:15;14.90;99.90
18753;DHT22;9505;50.882;5.350;2023-07-13T04:20:41;14.90;99.90
18753;DHT22;9505;50.882;5.350;2023-07-13T04:23:06;15.00;99.90
18753;DHT22;9505;50.882;5.350;2023-07-13T04:25:32;15.10;99.90
18753;DHT22;9505;50.882;5.350;2023-07-13T04:27:57;15.10;99.90
18753;DHT22;9505;50.882;5.350;2023-07-13T04:30:23;15.20;99.90
18753;DHT22;9505;50.882;5.350;2023-07-13T04:32:51;15.30;99.90
18753;DHT22;9505;50.882;5.350;2023-07-13T04:35:18;15.40;99.90
18753;DHT22;9505;50.882;5.350;2023-07-13T04:37:46;15.30;99.90
18753;DHT22;9505;50.882;5.350;2023-07-13T04:40:12;15.40;99.90
18753;DHT22;9505;50.882;5.350;2023-07-13T04:42:38;15.50;99.90
18753;DHT22;9505;50.882;5.350;2023-07-13T04:45:06;15.60;99.90
18753;DHT22;9505;50.882;5.350;2023-07-13T04:47:32;15.70;99.90
18753;DHT22;9505;50.882;5.350;2023-07-13T04:49:57;15.80;99.90
18753;DHT22;9505;50.882;5.350;2023-07-13T04:52:23;15.90;99.90
18753;DHT22;9505;50.882;5.350;2023-07-13T04:54:49;16.00;99.90
18753;DHT22;9505;50.882;5.350;2023-07-13T04:57:15;16.20;99.90
18753;DHT22;9505;50.882;5.350;2023-07-13T04:59:41;16.10;99.90
18753;DHT22;9505;50.882;5.350;2023-07-13T05:02:06;16.20;99.90
18753;DHT22;9505;50.882;5.350;2023-07-13T05:04:32;16.20;99.90
18753;DHT22;9505;50.882;5.350;2023-07-13T05:06:59;16.00;99.90
18753;DHT22;9505;50.882;5.350;2023-07-13T05:09:25;16.00;99.90
18753;DHT22;9505;50.882;5.350;2023-07-13T05:11:50;15.90;99.90
18753;DHT22;9505;50.882;5.350;2023-07-13T05:14:16;15.90;99.90
18753;DHT22;9505;50.882;5.350;2023-07-13T05:16:42;16.00;99.90
18753;DHT22;9505;50.882;5.350;2023-07-13T05:19:08;16.00;99.90
18753;DHT22;9505;50.882;5.350;2023-07-13T05:21:34;15.90;99.90
18753;DHT22;9505;50.882;5.350;2023-07-13T05:24:00;15.90;99.90
18753;DHT22;9505;50.882;5.350;2023-07-13T05:26:25;15.90;99.90
18753;DHT22;9505;50.882;5.350;2023-07-13T05:28:51;15.80;99.90
18753;DHT22;9505;50.882;5.350;2023-07-13T05:31:16;15.90;99.90
18753;DHT22;9505;50.882;5.350;2023-07-13T05:33:42;16.10;99.90
18753;DHT22;9505;50.882;5.350;2023-07-13T05:36:08;16.20;99.90
18753;DHT22;9505;50.882;5.350;2023-07-13T05:38:34;16.40;99.90
18753;DHT22;9505;50.882;5.350;2023-07-13T05:41:00;16.40;99.90
18753;DHT22;9505;50.882;5.350;2023-07-13T05:43:26;16.50;99.90
18753;DHT22;9505;50.882;5.350;2023-07-13T05:45:54;16.70;99.90
18753;DHT22;9505;50.882;5.350;2023-07-13T05:48:20;16.90;99.90
18753;DHT22;9505;50.882;5.350;2023-07-13T05:50:45;16.80;99.90
18753;DHT22;9505;50.882;5.350;2023-07-13T05:53:12;16.90;99.90
18753;DHT22;9505;50.882;5.350;2023-07-13T05:55:45;17.00;99.90
18753;DHT22;9505;50.882;5.350;2023-07-13T05:58:17;16.90;99.90
18753;DHT22;9505;50.882;5.350;2023-07-13T06:00:43;17.00;99.90
18753;DHT22;9505;50.882;5.350;2023-07-13T06:03:08;17.10;99.90
18753;DHT22;9505;50.882;5.350;2023-07-13T06:05:35;17.00;99.90
18753;DHT22;9505;50.882;5.350;2023-07-13T06:08:02;17.00;99.90
18753;DHT22;9505;50.882;5.350;2023-07-13T06:10:28;17.10;99.90
18753;DHT22;9505;50.882;5.350;2023-07-13T06:12:53;17.30;99.90
18753;DHT22;9505;50.882;5.350;2023-07-13T06:15:19;17.40;99.90
18753;DHT22;9505;50.882;5.350;2023-07-13T06:17:45;17.60;99.90
18753;DHT22;9505;50.882;5.350;2023-07-13T06:20:10;17.60;99.90
18753;DHT22;9505;50.882;5.350;2023-07-13T06:22:36;17.60;99.90
18753;DHT22;9505;50.882;5.350;2023-07-13T06:25:02;17.40;99.90
18753;DHT22;9505;50.882;5.350;2023-07-13T06:27:28;17.50;99.90
18753;DHT22;9505;50.882;5.350;2023-07-13T06:29:53;17.60;99.90
18753;DHT22;9505;50.882;5.350;2023-07-13T06:32:20;17.80;99.90
18753;DHT22;9505;50.882;5.350;2023-07-13T06:34:45;17.80;99.90
18753;DHT22;9505;50.882;5.350;2023-07-13T06:37:11;17.80;99.90
18753;DHT22;9505;50.882;5.350;2023-07-13T06:39:37;17.80;99.90
18753;DHT22;9505;50.882;5.350;2023-07-13T06:42:02;17.70;99.90
18753;DHT22;9505;50.882;5.350;2023-07-13T06:44:28;17.80;99.90
18753;DHT22;9505;50.882;5.350;2023-07-13T06:46:53;17.90;99.90
18753;DHT22;9505;50.882;5.350;2023-07-13T06:49:19;17.70;99.90
18753;DHT22;9505;50.882;5.350;2023-07-13T06:51:45;17.60;99.90
18753;DHT22;9505;50.882;5.350;2023-07-13T06:54:11;17.70;99.90
18753;DHT22;9505;50.882;5.350;2023-07-13T06:56:36;17.80;99.90
18753;DHT22;9505;50.882;5.350;2023-07-13T06:59:02;17.90;99.90
18753;DHT22;9505;50.882;5.350;2023-07-13T07:01:27;18.00;99.90
18753;DHT22;9505;50.882;5.350;2023-07-13T07:03:53;18.10;99.90
18753;DHT22;9505;50.882;5.350;2023-07-13T07:06:20;18.20;99.90
18753;DHT22;9505;50.882;5.350;2023-07-13T07:08:49;18.20;99.90
18753;DHT22;9505;50.882;5.350;2023-07-13T07:11:18;18.20;99.90
18753;DHT22;9505;50.882;5.350;2023-07-13T07:13:44;18.40;99.90
18753;DHT22;9505;50.882;5.350;2023-07-13T07:16:09;18.50;99.90
18753;DHT22;9505;50.882;5.350;2023-07-13T07:18:36;18.40;99.90
18753;DHT22;9505;50.882;5.350;2023-07-13T07:21:01;18.30;99.90
18753;DHT22;9505;50.882;5.350;2023-07-13T07:23:27;18.50;99.90
18753;DHT22;9505;50.882;5.350;2023-07-13T07:25:53;18.30;99.90
18753;DHT22;9505;50.882;5.350;2023-07-13T07:28:19;18.50;99.90
18753;DHT22;9505;50.882;5.350;2023-07-13T07:30:45;19.00;99.90
18753;DHT22;9505;50.882;5.350;2023-07-13T07:33:11;18.90;99.90
18753;DHT22;9505;50.882;5.350;2023-07-13T07:35:37;19.30;99.90
18753;DHT22;9505;50.882;5.350;2023-07-13T07:38:02;19.30;99.90
18753;DHT22;9505;50.882;5.350;2023-07-13T07:40:28;19.30;99.90
18753;DHT22;9505;50.882;5.350;2023-07-13T07:42:54;19.20;99.90
18753;DHT22;9505;50.882;5.350;2023-07-13T07:45:20;19.20;99.90
18753;DHT22;9505;50.882;5.350;2023-07-13T07:47:46;19.00;99.90
18753;DHT22;9505;50.882;5.350;2023-07-13T07:50:12;18.90;99.90
18753;DHT22;9505;50.882;5.350;2023-07-13T07:52:38;19.10;99.90
18753;DHT22;9505;50.882;5.350;2023-07-13T07:55:06;19.30;99.90
18753;DHT22;9505;50.882;5.350;2023-07-13T07:57:32;19.60;99.90
18753;DHT22;9505;50.882;5.350;2023-07-13T07:59:58;19.70;99.90
18753;DHT22;9505;50.882;5.350;2023-07-13T08:02:24;20.10;99.90
18753;DHT22;9505;50.882;5.350;2023-07-13T08:04:50;20.30;99.90
18753;DHT22;9505;50.882;5.350;2023-07-13T08:07:16;20.50;99.90
18753;DHT22;9505;50.882;5.350;2023-07-13T08:09:41;20.50;99.90
18753;DHT22;9505;50.882;5.350;2023-07-13T08:12:07;20.80;99.90
18753;DHT22;9505;50.882;5.350;2023-07-13T08:14:33;21.00;99.90
18753;DHT22;9505;50.882;5.350;2023-07-13T08:16:59;21.10;99.90
18753;DHT22;9505;50.882;5.350;2023-07-13T08:19:24;20.70;99.90
18753;DHT22;9505;50.882;5.350;2023-07-13T08:21:50;20.70;99.90
18753;DHT22;9505;50.882;5.350;2023-07-13T08:24:15;21.00;99.90
18753;DHT22;9505;50.882;5.350;2023-07-13T08:26:44;20.80;99.90
18753;DHT22;9505;50.882;5.350;2023-07-13T08:29:10;20.80;99.90
18753;DHT22;9505;50.882;5.350;2023-07-13T08:31:36;21.20;99.90
18753;DHT22;9505;50.882;5.350;2023-07-13T08:34:01;21.50;99.90
18753;DHT22;9505;50.882;5.350;2023-07-13T08:36:28;21.40;99.90
18753;DHT22;9505;50.882;5.350;2023-07-13T08:38:54;21.50;99.90
18753;DHT22;9505;50.882;5.350;2023-07-13T08:41:20;21.20;99.90
18753;DHT22;9505;50.882;5.350;2023-07-13T08:43:50;20.50;99.90
18753;DHT22;9505;50.882;5.350;2023-07-13T08:46:37;20.50;99.90
18753;DHT22;9505;50.882;5.350;2023-07-13T08:49:13;21.10;99.90
18753;DHT22;9505;50.882;5.350;2023-07-13T08:51:47;21.30;99.90
18753;DHT22;9505;50.882;5.350;2023-07-13T08:54:31;21.50;99.90
18753;DHT22;9505;50.882;5.350;2023-07-13T08:57:01;21.50;99.90
18753;DHT22;9505;50.882;5.350;2023-07-13T08:59:30;21.60;99.90
18753;DHT22;9505;50.882;5.350;2023-07-13T09:04:45;22.00;99.90
18753;DHT22;9505;50.882;5.350;2023-07-13T09:07:39;21.60;99.90
18753;DHT22;9505;50.882;5.350;2023-07-13T09:10:23;22.00;99.90
18753;DHT22;9505;50.882;5.350;2023-07-13T09:15:41;21.80;99.90
18753;DHT22;9505;50.882;5.350;2023-07-13T09:18:31;21.60;99.90
18753;DHT22;9505;50.882;5.350;2023-07-13T09:21:07;21.40;99.90
18753;DHT22;9505;50.882;5.350;2023-07-13T09:23:35;21.30;99.90
18753;DHT22;9505;50.882;5.350;2023-07-13T09:26:05;21.70;99.90
18753;DHT22;9505;50.882;5.350;2023-07-13T09:28:43;22.20;99.90
18753;DHT22;9505;50.882;5.350;2023-07-13T09:31:20;22.60;99.90
18753;DHT22;9505;50.882;5.350;2023-07-13T09:33:49;22.10;99.90
18753;DHT22;9505;50.882;5.350;2023-07-13T09:36:30;22.10;99.90
18753;DHT22;9505;50.882;5.350;2023-07-13T09:44:30;22.50;99.90
18753;DHT22;9505;50.882;5.350;2023-07-13T09:46:57;23.20;99.90
18753;DHT22;9505;50.882;5.350;2023-07-13T09:49:34;23.70;99.90
18753;DHT22;9505;50.882;5.350;2023-07-13T09:52:05;23.70;99.90
18753;DHT22;9505;50.882;5.350;2023-07-13T09:54:34;23.80;99.90
18753;DHT22;9505;50.882;5.350;2023-07-13T09:57:02;23.30;99.90
18753;DHT22;9505;50.882;5.350;2023-07-13T09:59:35;23.10;99.90
18753;DHT22;9505;50.882;5.350;2023-07-13T10:02:02;23.10;99.90
18753;DHT22;9505;50.882;5.350;2023-07-13T10:04:34;23.20;99.90
18753;DHT22;9505;50.882;5.350;2023-07-13T10:07:07;23.60;99.90
18753;DHT22;9505;50.882;5.350;2023-07-13T10:09:33;23.70;99.90
18753;DHT22;9505;50.882;5.350;2023-07-13T10:11:59;23.30;99.90
18753;DHT22;9505;50.882;5.350;2023-07-13T10:14:25;23.00;99.90
18753;DHT22;9505;50.882;5.350;2023-07-13T10:16:56;22.60;99.90
18753;DHT22;9505;50.882;5.350;2023-07-13T10:19:29;22.40;99.90
18753;DHT22;9505;50.882;5.350;2023-07-13T10:21:59;22.90;99.90
18753;DHT22;9505;50.882;5.350;2023-07-13T10:24:30;23.30;99.90
18753;DHT22;9505;50.882;5.350;2023-07-13T10:30:28;22.60;99.90
18753;DHT22;9505;50.882;5.350;2023-07-13T10:32:27;23.00;99.90
18753;DHT22;9505;50.882;5.350;2023-07-13T10:34:53;23.30;99.90
18753;DHT22;9505;50.882;5.350;2023-07-13T10:37:24;23.20;99.90
18753;DHT22;9505;50.882;5.350;2023-07-13T10:39:54;23.60;99.90
18753;DHT22;9505;50.882;5.350;2023-07-13T10:42:30;24.00;99.90
18753;DHT22;9505;50.882;5.350;2023-07-13T10:44:57;24.40;99.90
18753;DHT22;9505;50.882;5.350;2023-07-13T10:47:24;24.30;99.90
18753;DHT22;9505;50.882;5.350;2023-07-13T10:49:53;24.00;99.90
18753;DHT22;9505;50.882;5.350;2023-07-13T10:52:48;23.70;99.90
18753;DHT22;9505;50.882;5.350;2023-07-13T10:55:40;23.10;99.90
18753;DHT22;9505;50.882;5.350;2023-07-13T11:01:22;22.70;99.90
18753;DHT22;9505;50.882;5.350;2023-07-13T11:03:50;22.40;99.90
18753;DHT22;9505;50.882;5.350;2023-07-13T11:11:44;22.40;99.90
18753;DHT22;9505;50.882;5.350;2023-07-13T11:14:34;22.30;99.90
18753;DHT22;9505;50.882;5.350;2023-07-13T11:19:51;23.40;99.90
18753;DHT22;9505;50.882;5.350;2023-07-13T11:22:24;22.60;99.90
18753;DHT22;9505;50.882;5.350;2023-07-13T11:24:56;22.20;99.90
18753;DHT22;9505;50.882;5.350;2023-07-13T11:38:42;22.90;99.90
18753;DHT22;9505;50.882;5.350;2023-07-13T11:41:21;23.50;99.90
18753;DHT22;9505;50.882;5.350;2023-07-13T11:43:54;23.90;99.90
18753;DHT22;9505;50.882;5.350;2023-07-13T11:46:24;24.00;99.90
18753;DHT22;9505;50.882;5.350;2023-07-13T11:48:51;24.60;99.90
18753;DHT22;9505;50.882;5.350;2023-07-13T11:51:28;24.90;99.90
18753;DHT22;9505;50.882;5.350;2023-07-13T11:53:59;24.70;99.90
18753;DHT22;9505;50.882;5.350;2023-07-13T11:56:27;24.60;99.90
18753;DHT22;9505;50.882;5.350;2023-07-13T11:58:55;24.10;99.90
18753;DHT22;9505;50.882;5.350;2023-07-13T12:01:27;24.50;99.90
18753;DHT22;9505;50.882;5.350;2023-07-13T12:03:58;24.30;99.90
18753;DHT22;9505;50.882;5.350;2023-07-13T12:06:28;24.40;99.90
18753;DHT22;9505;50.882;5.350;2023-07-13T12:09:02;24.60;99.90
18753;DHT22;9505;50.882;5.350;2023-07-13T12:11:29;24.70;99.90
18753;DHT22;9505;50.882;5.350;2023-07-13T12:13:55;24.40;99.90
18753;DHT22;9505;50.882;5.350;2023-07-13T12:18:47;24.90;99.90
18753;DHT22;9505;50.882;5.350;2023-07-13T12:21:17;24.40;99.90
18753;DHT22;9505;50.882;5.350;2023-07-13T12:23:45;23.90;99.90
18753;DHT22;9505;50.882;5.350;2023-07-13T12:26:12;24.00;99.90
18753;DHT22;9505;50.882;5.350;2023-07-13T12:31:40;24.40;99.90
18753;DHT22;9505;50.882;5.350;2023-07-13T12:36:35;24.50;99.90
18753;DHT22;9505;50.882;5.350;2023-07-13T12:39:11;24.50;99.90
18753;DHT22;9505;50.882;5.350;2023-07-13T12:41:37;24.40;99.90
18753;DHT22;9505;50.882;5.350;2023-07-13T12:44:03;24.40;99.90
18753;DHT22;9505;50.882;5.350;2023-07-13T12:46:30;24.60;99.90
18753;DHT22;9505;50.882;5.350;2023-07-13T12:48:57;24.40;99.90
18753;DHT22;9505;50.882;5.350;2023-07-13T12:51:26;24.20;99.90
18753;DHT22;9505;50.882;5.350;2023-07-13T12:53:57;24.50;99.90
18753;DHT22;9505;50.882;5.350;2023-07-13T12:56:26;25.00;99.90
18753;DHT22;9505;50.882;5.350;2023-07-13T12:58:58;25.50;99.90
18753;DHT22;9505;50.882;5.350;2023-07-13T13:01:27;25.70;99.90
18753;DHT22;9505;50.882;5.350;2023-07-13T13:03:54;25.60;99.90
18753;DHT22;9505;50.882;5.350;2023-07-13T13:06:26;25.00;99.90
18753;DHT22;9505;50.882;5.350;2023-07-13T13:08:59;24.60;99.90
18753;DHT22;9505;50.882;5.350;2023-07-13T13:11:26;24.10;99.90
18753;DHT22;9505;50.882;5.350;2023-07-13T13:13:53;23.90;99.90
18753;DHT22;9505;50.882;5.350;2023-07-13T13:16:23;23.60;99.90
18753;DHT22;9505;50.882;5.350;2023-07-13T13:18:51;23.80;99.90
18753;DHT22;9505;50.882;5.350;2023-07-13T13:21:18;23.90;99.90
18753;DHT22;9505;50.882;5.350;2023-07-13T13:23:44;24.00;99.90
18753;DHT22;9505;50.882;5.350;2023-07-13T13:26:12;23.80;99.90
18753;DHT22;9505;50.882;5.350;2023-07-13T13:28:38;23.70;99.90
18753;DHT22;9505;50.882;5.350;2023-07-13T13:31:04;23.50;99.90
18753;DHT22;9505;50.882;5.350;2023-07-13T13:33:29;23.30;99.90
18753;DHT22;9505;50.882;5.350;2023-07-13T13:35:56;23.50;99.90
18753;DHT22;9505;50.882;5.350;2023-07-13T13:38:26;23.30;99.90
18753;DHT22;9505;50.882;5.350;2023-07-13T13:40:52;23.00;99.90
18753;DHT22;9505;50.882;5.350;2023-07-13T13:43:22;22.40;99.90
18753;DHT22;9505;50.882;5.350;2023-07-13T13:45:52;21.50;99.90
18753;DHT22;9505;50.882;5.350;2023-07-13T13:48:22;21.10;99.90
18753;DHT22;9505;50.882;5.350;2023-07-13T13:50:59;20.80;99.90
18753;DHT22;9505;50.882;5.350;2023-07-13T13:53:25;20.80;99.90
18753;DHT22;9505;50.882;5.350;2023-07-13T13:55:51;20.60;99.90
18753;DHT22;9505;50.882;5.350;2023-07-13T13:58:18;20.40;99.90
18753;DHT22;9505;50.882;5.350;2023-07-13T14:00:44;20.10;99.90
18753;DHT22;9505;50.882;5.350;2023-07-13T14:03:20;19.80;99.90
18753;DHT22;9505;50.882;5.350;2023-07-13T14:05:48;19.80;99.90
18753;DHT22;9505;50.882;5.350;2023-07-13T14:08:19;19.60;99.90
18753;DHT22;9505;50.882;5.350;2023-07-13T14:10:47;19.80;99.90
18753;DHT22;9505;50.882;5.350;2023-07-13T14:13:21;19.90;99.90
18753;DHT22;9505;50.882;5.350;2023-07-13T14:15:48;20.10;99.90
18753;DHT22;9505;50.882;5.350;2023-07-13T14:18:14;20.20;99.90
18753;DHT22;9505;50.882;5.350;2023-07-13T14:20:44;20.30;99.90
18753;DHT22;9505;50.882;5.350;2023-07-13T14:23:12;20.50;99.90
18753;DHT22;9505;50.882;5.350;2023-07-13T14:25:37;20.80;99.90
18753;DHT22;9505;50.882;5.350;2023-07-13T14:28:21;21.20;99.90
18753;DHT22;9505;50.882;5.350;2023-07-13T14:30:48;21.40;99.90
18753;DHT22;9505;50.882;5.350;2023-07-13T14:33:14;21.10;99.90
18753;DHT22;9505;50.882;5.350;2023-07-13T14:35:40;21.30;99.90
18753;DHT22;9505;50.882;5.350;2023-07-13T14:38:10;21.40;99.90
18753;DHT22;9505;50.882;5.350;2023-07-13T14:40:37;21.00;99.90
18753;DHT22;9505;50.882;5.350;2023-07-13T14:43:03;21.00;99.90
18753;DHT22;9505;50.882;5.350;2023-07-13T14:45:30;20.90;99.90
18753;DHT22;9505;50.882;5.350;2023-07-13T14:47:56;21.30;99.90
18753;DHT22;9505;50.882;5.350;2023-07-13T14:50:31;21.80;99.90
18753;DHT22;9505;50.882;5.350;2023-07-13T14:52:57;22.00;99.90
18753;DHT22;9505;50.882;5.350;2023-07-13T14:55:23;22.10;99.90
18753;DHT22;9505;50.882;5.350;2023-07-13T14:57:51;22.50;99.90
18753;DHT22;9505;50.882;5.350;2023-07-13T15:00:20;22.80;99.90
18753;DHT22;9505;50.882;5.350;2023-07-13T15:02:51;22.90;99.90
18753;DHT22;9505;50.882;5.350;2023-07-13T15:05:20;23.10;99.90
18753;DHT22;9505;50.882;5.350;2023-07-13T15:07:47;23.20;99.90
18753;DHT22;9505;50.882;5.350;2023-07-13T15:10:21;23.60;99.90
18753;DHT22;9505;50.882;5.350;2023-07-13T15:12:47;23.50;99.90
18753;DHT22;9505;50.882;5.350;2023-07-13T15:15:14;23.30;99.90
18753;DHT22;9505;50.882;5.350;2023-07-13T15:17:41;23.10;99.90
18753;DHT22;9505;50.882;5.350;2023-07-13T15:20:33;23.50;99.90
18753;DHT22;9505;50.882;5.350;2023-07-13T15:23:01;23.90;99.90
18753;DHT22;9505;50.882;5.350;2023-07-13T15:25:29;24.60;99.90
18753;DHT22;9505;50.882;5.350;2023-07-13T15:27:56;24.70;99.90
18753;DHT22;9505;50.882;5.350;2023-07-13T15:30:27;24.70;99.90
18753;DHT22;9505;50.882;5.350;2023-07-13T15:33:16;24.70;99.90
18753;DHT22;9505;50.882;5.350;2023-07-13T15:35:45;25.00;99.90
18753;DHT22;9505;50.882;5.350;2023-07-13T15:38:22;24.50;99.90
18753;DHT22;9505;50.882;5.350;2023-07-13T15:40:49;24.50;99.90
18753;DHT22;9505;50.882;5.350;2023-07-13T15:43:16;25.00;99.90
18753;DHT22;9505;50.882;5.350;2023-07-13T15:45:43;25.20;99.90
18753;DHT22;9505;50.882;5.350;2023-07-13T15:48:14;25.50;99.90
18753;DHT22;9505;50.882;5.350;2023-07-13T15:50:49;25.70;99.90
18753;DHT22;9505;50.882;5.350;2023-07-13T15:53:23;25.90;99.90
18753;DHT22;9505;50.882;5.350;2023-07-13T15:55:50;25.90;99.90
18753;DHT22;9505;50.882;5.350;2023-07-13T15:58:17;25.70;99.90
18753;DHT22;9505;50.882;5.350;2023-07-13T16:00:44;25.40;99.90
18753;DHT22;9505;50.882;5.350;2023-07-13T16:03:10;25.80;99.90
18753;DHT22;9505;50.882;5.350;2023-07-13T16:05:37;26.10;99.90
18753;DHT22;9505;50.882;5.350;2023-07-13T16:08:13;25.40;99.90
18753;DHT22;9505;50.882;5.350;2023-07-13T16:10:43;24.70;99.90
18753;DHT22;9505;50.882;5.350;2023-07-13T16:13:14;24.00;99.90
18753;DHT22;9505;50.882;5.350;2023-07-13T16:15:40;23.60;99.90
18753;DHT22;9505;50.882;5.350;2023-07-13T16:18:10;23.50;99.90
18753;DHT22;9505;50.882;5.350;2023-07-13T16:20:38;23.30;99.90
18753;DHT22;9505;50.882;5.350;2023-07-13T16:23:04;23.20;99.90
18753;DHT22;9505;50.882;5.350;2023-07-13T16:25:30;23.10;99.90
18753;DHT22;9505;50.882;5.350;2023-07-13T16:27:56;23.10;99.90
18753;DHT22;9505;50.882;5.350;2023-07-13T16:30:29;23.40;99.90
18753;DHT22;9505;50.882;5.350;2023-07-13T16:32:57;23.40;99.90
18753;DHT22;9505;50.882;5.350;2023-07-13T16:35:26;23.40;99.90
18753;DHT22;9505;50.882;5.350;2023-07-13T16:37:52;23.30;99.90